• Join FlightAware (Why Join?)
  • Login
  • US Flag 
02:24AM EDT


 

Airport Tracker/Info


-or-


 

Live Flight TrackerFlight Track Log ✈ EJA982 ✈ 05-May-2013 ✈ KJAX - KPDK

Flight Track Log - Related Links

Times and Time Zones

All times are in EDT time to prevent confusion due to time zone crossing. See the EJA982 flight status page for this flight to view local times or setup timezone preferences in your user account.

Time Position Orientation Groundspeed Altitude Reporting Facility
EDT Latitude Longitude Course Direction KTS MPH feet Rate Location/Type
02:44PM 30.4906 -81.7042 308° West 161 185 1,200  Level Jacksonville Center
02:44PM 30.5117 -81.7353 308° West 200 230 3,000 2,580 Climbing Jacksonville Center
02:45PM 30.5581 -81.7828 319° Northwest 258 297 4,900 3,060 Climbing Jacksonville Center
02:45PM 30.5750 -81.7875 347° North 252 290 6,500 3,360 Climbing Jacksonville Center
02:46PM 30.6231 -81.8136 335° Northwest 277 319 8,300 2,820 Climbing Jacksonville Center
02:47PM 30.7008 -81.8536 336° Northwest 289 333 11,300 2,700 Climbing Jacksonville Center
02:48PM 30.7908 -81.9011 336° Northwest 313 360 13,700 2,400 Climbing Jacksonville Center
02:49PM 30.8872 -81.9483 337° Northwest 349 402 16,200 2,400 Climbing Jacksonville Center
02:50PM 30.9900 -82.0008 336° Northwest 381 438 18,500 2,220 Climbing Jacksonville Center
02:51PM 31.0947 -82.0556 336° Northwest 400 460 20,700 2,160 Climbing Jacksonville Center
02:52PM 31.2017 -82.1153 334° Northwest 411 473 22,900 1,140 Climbing Jacksonville Center
02:53PM 31.3147 -82.1728 337° Northwest 423 487 23,000 540 Climbing Jacksonville Center
02:54PM 31.4383 -82.2350 337° Northwest 458 527 24,000 480 Climbing Jacksonville Center
02:57PM 31.7986 -82.4236 336° Northwest 483 556 25,000 240 Climbing Atlanta Center
02:58PM 31.9225 -82.4900 336° Northwest 483 556 25,000  Level Atlanta Center
02:59PM 32.0486 -82.5589 335° Northwest 488 562 25,000  Level Atlanta Center
03:01PM 32.3047 -82.6922 336° Northwest 488 562 25,000 -300 Level Atlanta Center
03:02PM 32.4267 -82.7567 336° Northwest 488 562 24,100 -540 Descending Atlanta Center
03:03PM 32.5358 -82.8167 335° Northwest 466 536 24,000 -540 Descending Atlanta Center
03:04PM 32.6347 -82.9017 324° Northwest 442 509 23,100 -1,200 Descending Atlanta Center
03:05PM 32.7294 -82.9944 321° Northwest 442 509 21,600 -1,500 Descending Atlanta Center
03:06PM 32.8242 -83.0922 319° Northwest 442 509 20,200 -840 Descending Atlanta Center
03:07PM 32.9167 -83.1850 320° Northwest 442 509 20,000 -120 Descending Atlanta Center
03:08PM 33.0133 -83.2833 320° Northwest 442 509 20,000 -1,080 Level Atlanta Center
03:09PM 33.1058 -83.3792 319° Northwest 442 509 17,900 -2,280 Descending Atlanta Center
03:10PM 33.2003 -83.4753 320° Northwest 442 509 15,500 -2,400 Descending Atlanta Center
03:11PM 33.2883 -83.5642 320° Northwest 432 497 13,200 -2,160 Descending Atlanta Center
03:12PM 33.3667 -83.6333 324° Northwest 358 412 11,200 -1,200 Descending Atlanta TRACON
03:13PM 33.4411 -83.7003 323° Northwest 338 389 10,800 -1,140 Descending Atlanta Center
03:14PM 33.5244 -83.7172 350° North 307 353 9,000 -1,860 Descending Atlanta Center
03:15PM 33.6061 -83.7394 347° North 301 346 7,100 -1,500 Descending Atlanta Center
03:16PM 33.6769 -83.7592 347° North 291 335 6,000 -600 Descending Atlanta Center
03:17PM 33.7481 -83.7864 342° North 278 320 6,000  Level Atlanta Center
03:18PM 33.8108 -83.8364 327° Northwest 267 307 6,000 -420 Level Atlanta Center
03:19PM 33.8672 -83.8836 325° Northwest 256 295 5,200 -1,020 Descending Atlanta Center
03:20PM 33.9167 -83.9333 320° Northwest 227 261 4,000 -600 Descending Atlanta TRACON
03:21PM 33.9333 -84.0000 287° West 215 247 4,000  Level Atlanta TRACON
03:22PM 33.9500 -84.0667 287° West 216 249 4,000 -540 Level Atlanta TRACON
03:23PM 33.9500 -84.1333 270° West 216 249 3,000 -540 Descending Atlanta TRACON
03:24PM 33.9500 -84.2000 270° West 205 236 3,000 -300 Level Atlanta TRACON
03:25PM 33.9333 -84.2667 253° West 194 223 2,400 -840 Descending Atlanta TRACON
03:26PM 33.9000 -84.2833 203° Southwest 125 144 1,400 -1,020 Descending Atlanta TRACON
03:28PM 33.8667 -84.3000 220° Southwest  Level FlightAware Approximate
03:35PM 33.8756 -84.3020 220° Southwest  Level Estimated